createdAt,value
2022-10-27T00:00:07.754Z,12.73
2022-10-27T00:02:34.271Z,9.75
2022-10-27T00:05:00.793Z,6.80
2022-10-27T00:07:27.467Z,5.85
2022-10-27T00:09:54.000Z,14.23
2022-10-27T00:12:20.587Z,7.18
2022-10-27T00:14:47.024Z,6.53
2022-10-27T00:17:13.532Z,6.13
2022-10-27T00:19:40.032Z,7.28
2022-10-27T00:22:06.528Z,9.00
2022-10-27T00:24:33.140Z,6.50
2022-10-27T00:27:00.002Z,11.43
2022-10-27T00:29:26.547Z,8.70
2022-10-27T00:31:53.149Z,6.15
2022-10-27T00:34:20.781Z,7.22
2022-10-27T00:36:47.274Z,6.00
2022-10-27T00:39:13.884Z,8.52
2022-10-27T00:41:42.884Z,5.07
2022-10-27T00:44:28.375Z,5.32
2022-10-27T00:46:55.309Z,7.05
2022-10-27T00:49:31.885Z,6.90
2022-10-27T00:52:08.044Z,8.55
2022-10-27T00:54:40.277Z,5.47
2022-10-27T00:57:08.591Z,9.07
2022-10-27T00:59:37.016Z,7.82
2022-10-27T01:02:23.849Z,8.68
2022-10-27T01:05:00.148Z,10.10
2022-10-27T01:07:28.259Z,9.15
2022-10-27T01:09:54.812Z,7.13
2022-10-27T01:14:49.034Z,5.60
2022-10-27T01:17:41.764Z,11.68
2022-10-27T01:20:28.861Z,11.57
2022-10-27T01:23:34.044Z,6.63
2022-10-27T01:26:37.050Z,8.45
2022-10-27T01:29:30.924Z,12.60
2022-10-27T01:32:36.844Z,10.88
2022-10-27T01:35:12.765Z,7.78
2022-10-27T01:37:48.760Z,9.02
2022-10-27T01:40:21.728Z,12.32
2022-10-27T01:42:51.118Z,8.00
2022-10-27T01:45:27.208Z,9.00
2022-10-27T01:47:56.451Z,7.85
2022-10-27T01:50:50.953Z,12.32
2022-10-27T01:53:30.252Z,8.60
2022-10-27T01:56:05.946Z,7.25
2022-10-27T01:59:06.939Z,9.65
2022-10-27T02:02:03.828Z,9.30
2022-10-27T02:04:52.446Z,9.43
2022-10-27T02:07:46.394Z,9.55
2022-10-27T02:10:17.028Z,11.20
2022-10-27T02:12:45.301Z,12.30
2022-10-27T02:15:40.311Z,10.10
2022-10-27T02:18:10.663Z,9.38
2022-10-27T02:20:45.479Z,9.88
2022-10-27T02:23:17.104Z,10.32
2022-10-27T02:26:00.313Z,10.15
2022-10-27T02:28:33.982Z,5.72
2022-10-27T02:31:01.594Z,12.50
2022-10-27T02:33:28.124Z,9.23
2022-10-27T02:35:56.118Z,8.82
2022-10-27T02:38:22.674Z,10.98
2022-10-27T02:40:49.922Z,11.18
2022-10-27T02:43:16.433Z,10.57
2022-10-27T02:45:42.921Z,9.27
2022-10-27T02:48:09.524Z,9.70
2022-10-27T02:50:36.042Z,13.27
2022-10-27T02:53:02.554Z,6.82
2022-10-27T02:55:29.156Z,11.82
2022-10-27T02:57:58.458Z,8.70
2022-10-27T03:00:25.153Z,10.65
2022-10-27T03:02:51.807Z,14.75
2022-10-27T03:05:20.786Z,8.52
2022-10-27T03:07:47.332Z,11.02
2022-10-27T03:12:49.265Z,8.60
2022-10-27T03:15:16.494Z,8.65
2022-10-27T03:17:45.151Z,11.20
2022-10-27T03:20:12.949Z,13.95
2022-10-27T03:22:40.173Z,6.60
2022-10-27T03:25:07.702Z,9.95
2022-10-27T03:27:34.545Z,9.38
2022-10-27T03:30:01.172Z,8.60
2022-10-27T03:32:27.611Z,10.55
2022-10-27T03:34:54.045Z,11.43
2022-10-27T03:37:20.620Z,8.68
2022-10-27T03:39:47.187Z,8.27
2022-10-27T03:42:13.694Z,7.00
2022-10-27T03:44:40.173Z,10.80
2022-10-27T03:47:06.663Z,9.68
2022-10-27T03:49:33.228Z,8.27
2022-10-27T03:51:59.740Z,11.38
2022-10-27T03:54:30.116Z,13.50
2022-10-27T03:56:56.733Z,9.93
2022-10-27T03:59:23.476Z,8.10
2022-10-27T04:01:50.620Z,13.57
2022-10-27T04:04:17.267Z,13.45
2022-10-27T04:06:43.774Z,10.13
2022-10-27T04:09:10.351Z,10.10
2022-10-27T04:11:36.928Z,7.57
2022-10-27T04:14:03.998Z,12.30
2022-10-27T04:16:30.514Z,15.32
2022-10-27T04:18:57.100Z,13.15
2022-10-27T04:21:23.852Z,9.10
2022-10-27T04:23:50.391Z,9.15
2022-10-27T04:26:16.994Z,9.00
2022-10-27T04:28:43.558Z,8.57
2022-10-27T04:31:10.182Z,11.90
2022-10-27T04:33:36.849Z,13.30
2022-10-27T04:36:05.533Z,10.70
2022-10-27T04:38:34.928Z,11.13
2022-10-27T04:41:04.135Z,13.77
2022-10-27T04:43:30.880Z,10.32
2022-10-27T04:45:58.363Z,9.93
2022-10-27T04:48:24.912Z,12.88
2022-10-27T04:50:51.538Z,11.05
2022-10-27T04:53:18.810Z,10.50
2022-10-27T04:55:45.605Z,13.13
2022-10-27T04:58:12.252Z,8.15
2022-10-27T05:00:38.940Z,10.10
2022-10-27T05:03:05.576Z,12.07
2022-10-27T05:05:32.186Z,10.32
2022-10-27T05:08:04.129Z,12.30
2022-10-27T05:10:32.619Z,10.30
2022-10-27T05:12:59.451Z,10.55
2022-10-27T05:15:26.637Z,9.02
2022-10-27T05:17:53.834Z,11.20
2022-10-27T05:20:22.605Z,11.38
2022-10-27T05:22:50.110Z,11.43
2022-10-27T05:25:16.951Z,11.65
2022-10-27T05:27:43.625Z,11.48
2022-10-27T05:30:11.918Z,13.70
2022-10-27T05:32:44.870Z,11.02
2022-10-27T05:35:13.985Z,9.82
2022-10-27T05:37:44.230Z,8.00
2022-10-27T05:40:11.594Z,10.80
2022-10-27T05:42:40.277Z,11.10
2022-10-27T05:45:08.099Z,8.50
2022-10-27T05:47:37.107Z,11.20
2022-10-27T05:50:04.056Z,10.57
2022-10-27T05:52:31.056Z,8.75
2022-10-27T05:54:57.906Z,11.38
2022-10-27T05:57:24.775Z,9.55
2022-10-27T05:59:51.760Z,10.88
2022-10-27T06:02:21.142Z,6.97
2022-10-27T06:04:49.725Z,8.52
2022-10-27T06:07:16.481Z,10.82
2022-10-27T06:09:43.186Z,8.88
2022-10-27T06:12:09.765Z,7.50
2022-10-27T06:14:36.274Z,10.18
2022-10-27T06:17:02.804Z,8.65
2022-10-27T06:19:29.438Z,9.10
2022-10-27T06:21:55.998Z,7.47
2022-10-27T06:24:22.519Z,7.63
2022-10-27T06:26:53.107Z,8.82
2022-10-27T06:29:22.714Z,6.88
2022-10-27T06:31:49.936Z,7.57
2022-10-27T06:34:16.459Z,7.45
2022-10-27T06:36:42.995Z,5.95
2022-10-27T06:39:09.528Z,5.45
2022-10-27T06:41:37.194Z,6.13
2022-10-27T06:44:04.062Z,7.70
2022-10-27T06:46:30.599Z,10.40
2022-10-27T06:49:02.261Z,6.57
2022-10-27T06:51:29.243Z,7.25
2022-10-27T06:53:58.484Z,8.70
2022-10-27T06:56:25.385Z,8.68
2022-10-27T06:58:54.061Z,5.07
2022-10-27T07:01:21.474Z,5.40
2022-10-27T07:03:48.115Z,6.85
2022-10-27T07:06:15.158Z,5.43
2022-10-27T07:08:41.874Z,6.10
2022-10-27T07:11:09.719Z,9.90
2022-10-27T07:13:36.629Z,5.85
2022-10-27T07:16:03.254Z,8.90
2022-10-27T07:18:29.885Z,6.97
2022-10-27T07:20:56.524Z,6.63
2022-10-27T07:23:23.163Z,7.43
2022-10-27T07:25:53.095Z,5.97
2022-10-27T07:28:22.858Z,8.50
2022-10-27T07:30:54.183Z,6.93
2022-10-27T07:33:21.144Z,9.55
2022-10-27T07:35:52.697Z,9.18
2022-10-27T07:38:21.021Z,6.38
2022-10-27T07:40:48.148Z,11.65
2022-10-27T07:43:17.915Z,10.95
2022-10-27T07:45:44.777Z,9.63
2022-10-27T07:48:14.094Z,9.13
2022-10-27T07:50:41.537Z,12.55
2022-10-27T07:53:09.067Z,7.63
2022-10-27T07:55:37.305Z,7.47
2022-10-27T07:58:12.874Z,12.95
2022-10-27T08:00:42.033Z,9.48
2022-10-27T08:03:13.802Z,8.85
2022-10-27T08:05:40.454Z,7.63
2022-10-27T08:08:08.135Z,8.90
2022-10-27T08:10:37.589Z,6.68
2022-10-27T08:13:05.483Z,7.53
2022-10-27T08:15:33.261Z,11.88
2022-10-27T08:18:02.666Z,7.60
2022-10-27T08:20:32.479Z,6.90
2022-10-27T08:23:04.603Z,9.80
2022-10-27T08:25:31.866Z,7.15
2022-10-27T08:27:59.010Z,7.50
2022-10-27T08:30:33.673Z,9.57
2022-10-27T08:33:03.088Z,5.82
2022-10-27T08:35:34.228Z,8.23
2022-10-27T08:38:23.079Z,5.88
2022-10-27T08:41:34.573Z,10.52
2022-10-27T08:44:26.888Z,7.10
2022-10-27T08:46:55.397Z,9.70
2022-10-27T08:49:42.162Z,6.55
2022-10-27T08:52:30.848Z,9.63
2022-10-27T08:55:22.199Z,6.63
2022-10-27T08:58:19.519Z,6.18
2022-10-27T09:00:57.940Z,4.93
2022-10-27T09:03:42.661Z,7.15
2022-10-27T09:06:36.366Z,9.43
2022-10-27T09:09:33.538Z,7.97
2022-10-27T09:12:32.318Z,7.55
2022-10-27T09:15:38.927Z,8.55
2022-10-27T09:18:17.728Z,11.27
2022-10-27T09:20:55.346Z,6.10
2022-10-27T09:23:53.055Z,6.40
2022-10-27T09:26:23.924Z,8.02
2022-10-27T09:28:54.625Z,7.88
2022-10-27T09:31:41.374Z,11.05
2022-10-27T09:34:16.340Z,5.57
2022-10-27T09:36:43.012Z,6.18
2022-10-27T09:39:09.940Z,7.72
2022-10-27T09:41:37.002Z,7.65
2022-10-27T09:44:04.664Z,5.80
2022-10-27T09:46:32.441Z,3.83
2022-10-27T09:49:06.933Z,5.28
2022-10-27T09:51:50.932Z,4.28
2022-10-27T09:54:39.427Z,5.72
2022-10-27T09:57:23.189Z,5.47
2022-10-27T09:59:59.397Z,6.50
2022-10-27T10:02:31.653Z,5.85
2022-10-27T10:05:00.145Z,3.72
2022-10-27T10:07:40.877Z,4.82
2022-10-27T10:10:28.654Z,4.75
2022-10-27T10:13:02.590Z,3.60
2022-10-27T10:15:30.906Z,5.10
2022-10-27T10:18:00.119Z,5.70
2022-10-27T10:20:29.743Z,3.80
2022-10-27T10:22:56.673Z,4.03
2022-10-27T10:25:28.247Z,7.93
2022-10-27T10:28:01.125Z,6.93
2022-10-27T10:30:28.625Z,8.60
2022-10-27T10:32:57.682Z,6.03
2022-10-27T10:35:44.878Z,8.90
2022-10-27T10:38:23.864Z,6.55
2022-10-27T10:41:10.542Z,4.35
2022-10-27T10:43:37.437Z,7.07
2022-10-27T10:46:05.787Z,3.40
2022-10-27T10:48:53.962Z,6.22
2022-10-27T10:51:29.550Z,6.05
2022-10-27T10:54:00.991Z,4.30
2022-10-27T10:56:33.681Z,5.80
2022-10-27T10:59:19.272Z,3.90
2022-10-27T11:01:53.053Z,10.30
2022-10-27T11:04:25.331Z,4.20
2022-10-27T11:06:59.033Z,3.67
2022-10-27T11:09:32.029Z,7.32
2022-10-27T11:12:00.566Z,5.18
2022-10-27T11:14:29.204Z,3.10
2022-10-27T11:17:01.593Z,6.40
2022-10-27T11:19:36.691Z,7.15
2022-10-27T11:22:15.791Z,6.07
2022-10-27T11:24:57.539Z,2.80
2022-10-27T11:27:36.160Z,2.60
2022-10-27T11:30:25.053Z,5.75
2022-10-27T11:33:14.367Z,6.35
2022-10-27T11:36:09.505Z,5.55
2022-10-27T11:38:52.143Z,5.03
2022-10-27T11:41:28.415Z,5.10
2022-10-27T11:44:10.127Z,5.25
2022-10-27T11:49:39.751Z,3.33
2022-10-27T11:52:20.678Z,3.90
2022-10-27T11:54:48.714Z,2.78
2022-10-27T11:57:39.108Z,4.88
2022-10-27T12:00:15.615Z,2.53
2022-10-27T12:03:23.814Z,5.20
2022-10-27T12:06:03.081Z,3.17
2022-10-27T12:08:49.737Z,3.08
2022-10-27T12:11:35.102Z,2.72
2022-10-27T12:14:04.671Z,3.28
2022-10-27T12:16:50.825Z,3.05
2022-10-27T12:21:52.065Z,2.42
2022-10-27T12:24:21.799Z,7.47
2022-10-27T12:26:57.452Z,2.45
2022-10-27T12:29:31.092Z,6.55
2022-10-27T12:32:03.752Z,4.35
2022-10-27T12:34:38.446Z,6.07
2022-10-27T12:37:23.630Z,4.95
2022-10-27T12:40:29.341Z,3.53
2022-10-27T12:43:21.796Z,7.40
2022-10-27T12:45:50.688Z,4.63
2022-10-27T12:48:49.318Z,5.13
2022-10-27T12:51:41.286Z,4.30
2022-10-27T12:54:50.523Z,8.07
2022-10-27T12:57:39.337Z,4.63
2022-10-27T13:00:13.327Z,7.43
2022-10-27T13:02:54.552Z,4.75
2022-10-27T13:05:30.830Z,6.20
2022-10-27T13:07:57.865Z,4.68
2022-10-27T13:10:31.713Z,4.28
2022-10-27T13:13:05.453Z,7.03
2022-10-27T13:15:54.150Z,5.60
2022-10-27T13:18:59.376Z,6.00
2022-10-27T13:21:32.368Z,3.80
2022-10-27T13:24:02.100Z,4.78
2022-10-27T13:26:50.961Z,5.53
2022-10-27T13:29:24.945Z,2.85
2022-10-27T13:32:23.128Z,7.30
2022-10-27T13:35:03.961Z,4.40
2022-10-27T13:38:10.672Z,6.00
2022-10-27T13:40:39.259Z,3.45
2022-10-27T13:43:23.613Z,4.85
2022-10-27T13:45:57.494Z,6.85
2022-10-27T13:48:24.298Z,8.43
2022-10-27T13:50:55.961Z,3.00
2022-10-27T13:53:24.256Z,4.78
2022-10-27T13:55:55.867Z,3.08
2022-10-27T13:58:47.067Z,3.78
2022-10-27T14:01:21.411Z,9.40
2022-10-27T14:04:10.314Z,4.50
2022-10-27T14:06:40.783Z,5.68
2022-10-27T14:09:34.091Z,8.05
2022-10-27T14:12:06.640Z,2.80
2022-10-27T14:14:39.364Z,3.08
2022-10-27T14:17:22.178Z,4.75
2022-10-27T14:20:22.584Z,4.97
2022-10-27T14:22:53.275Z,5.47
2022-10-27T14:25:27.728Z,4.20
2022-10-27T14:28:20.573Z,6.60
2022-10-27T14:31:09.006Z,3.50
2022-10-27T14:33:38.741Z,4.82
2022-10-27T14:36:46.720Z,5.07
2022-10-27T14:43:28.978Z,3.38
2022-10-27T14:46:01.172Z,4.13
2022-10-27T14:48:30.931Z,4.32
2022-10-27T14:51:03.073Z,4.97
2022-10-27T14:53:36.416Z,4.90
2022-10-27T14:56:16.724Z,3.47
2022-10-27T14:59:20.565Z,6.55
2022-10-27T15:01:57.698Z,4.60
2022-10-27T15:04:29.029Z,4.80
2022-10-27T15:06:58.034Z,3.78
2022-10-27T15:09:33.108Z,4.38
2022-10-27T15:12:03.952Z,3.47
2022-10-27T15:14:32.590Z,7.43
2022-10-27T15:17:01.053Z,3.10
2022-10-27T15:19:27.886Z,5.20
2022-10-27T15:21:55.062Z,2.92
2022-10-27T15:24:23.888Z,4.28
2022-10-27T15:26:52.531Z,3.35
2022-10-27T15:29:21.659Z,4.68
2022-10-27T15:31:57.735Z,10.70
2022-10-27T15:37:33.675Z,4.28
2022-10-27T15:40:21.000Z,5.88
2022-10-27T15:42:48.974Z,5.35
2022-10-27T15:45:30.755Z,6.65
2022-10-27T15:47:57.859Z,7.35
2022-10-27T15:50:29.231Z,4.25
2022-10-27T15:53:20.894Z,5.40
2022-10-27T15:55:58.294Z,3.58
2022-10-27T15:58:39.253Z,3.97
2022-10-27T16:01:32.040Z,4.45
2022-10-27T16:04:01.223Z,6.47
2022-10-27T16:06:30.193Z,3.75
2022-10-27T16:08:59.517Z,5.38
2022-10-27T16:11:32.977Z,5.60
2022-10-27T16:14:05.013Z,5.72
2022-10-27T16:16:36.423Z,3.65
2022-10-27T16:19:05.895Z,6.72
2022-10-27T16:21:34.423Z,5.20
2022-10-27T16:24:16.512Z,5.65
2022-10-27T16:26:43.773Z,10.40
2022-10-27T16:29:22.313Z,6.15
2022-10-27T16:31:50.563Z,6.35
2022-10-27T16:34:25.639Z,6.88
2022-10-27T16:36:53.469Z,4.22
2022-10-27T16:39:20.458Z,4.65
2022-10-27T16:41:47.257Z,5.53
2022-10-27T16:44:15.041Z,2.95
2022-10-27T16:49:08.009Z,6.20
2022-10-27T16:51:34.488Z,8.85
2022-10-27T16:54:00.934Z,6.43
2022-10-27T16:56:27.393Z,6.10
2022-10-27T16:58:53.897Z,8.27
2022-10-27T17:01:22.261Z,7.63
2022-10-27T17:03:52.296Z,8.00
2022-10-27T17:06:21.861Z,7.00
2022-10-27T17:08:48.858Z,3.35
2022-10-27T17:11:17.074Z,5.22
2022-10-27T17:13:43.691Z,6.30
2022-10-27T17:16:13.815Z,7.40
2022-10-27T17:18:40.884Z,6.15
2022-10-27T17:21:08.219Z,4.75
2022-10-27T17:23:35.264Z,4.32
2022-10-27T17:26:03.701Z,11.20
2022-10-27T17:28:31.053Z,8.80
2022-10-27T17:31:06.035Z,4.63
2022-10-27T17:33:33.858Z,9.02
2022-10-27T17:36:06.635Z,8.77
2022-10-27T17:38:36.778Z,6.43
2022-10-27T17:41:05.933Z,5.32
2022-10-27T17:43:36.148Z,5.07
2022-10-27T17:46:06.868Z,8.57
2022-10-27T17:48:41.885Z,6.78
2022-10-27T17:51:14.455Z,9.40
2022-10-27T17:53:42.884Z,9.85
2022-10-27T17:56:12.810Z,4.70
2022-10-27T17:58:42.708Z,4.18
2022-10-27T18:01:39.324Z,6.20
2022-10-27T18:04:11.761Z,9.95
2022-10-27T18:06:40.941Z,6.72
2022-10-27T18:09:08.318Z,11.82
2022-10-27T18:11:39.689Z,6.50
2022-10-27T18:14:13.008Z,7.57
2022-10-27T18:16:43.326Z,7.70
2022-10-27T18:19:13.053Z,8.40
2022-10-27T18:21:45.316Z,11.35
2022-10-27T18:24:14.464Z,6.18
2022-10-27T18:26:43.109Z,12.00
2022-10-27T18:29:14.456Z,11.70
2022-10-27T18:31:46.353Z,9.85
2022-10-27T18:34:14.895Z,8.52
2022-10-27T18:36:43.490Z,12.65
2022-10-27T18:39:20.504Z,9.38
2022-10-27T18:41:49.402Z,8.05
2022-10-27T18:44:17.104Z,7.65
2022-10-27T18:46:44.000Z,7.55
2022-10-27T18:49:15.942Z,11.60
2022-10-27T18:51:47.594Z,13.20
2022-10-27T18:54:17.820Z,9.90
2022-10-27T18:56:44.487Z,12.40
2022-10-27T18:59:13.402Z,22.98
2022-10-27T19:01:42.296Z,12.05
2022-10-27T19:04:13.611Z,11.93
2022-10-27T19:06:40.445Z,10.77
2022-10-27T19:09:11.358Z,8.65
2022-10-27T19:11:38.114Z,10.60
2022-10-27T19:14:05.185Z,12.52
2022-10-27T19:16:32.131Z,9.73
2022-10-27T19:19:00.188Z,8.25
2022-10-27T19:21:33.387Z,13.25
2022-10-27T19:24:04.081Z,15.45
2022-10-27T19:26:33.094Z,10.10
2022-10-27T19:29:02.925Z,8.82
2022-10-27T19:31:34.592Z,9.02
2022-10-27T19:34:01.424Z,9.40
2022-10-27T19:36:31.251Z,12.45
2022-10-27T19:39:00.951Z,11.23
2022-10-27T19:41:33.374Z,11.30
2022-10-27T19:44:00.860Z,9.27
2022-10-27T19:46:30.458Z,9.75
2022-10-27T19:49:00.515Z,6.47
2022-10-27T19:51:32.217Z,8.90
2022-10-27T19:53:59.559Z,10.85
2022-10-27T19:56:29.909Z,8.52
2022-10-27T19:59:06.793Z,10.93
2022-10-27T20:01:35.729Z,11.15
2022-10-27T20:04:08.260Z,13.98
2022-10-27T20:06:35.416Z,12.65
2022-10-27T20:09:02.636Z,11.32
2022-10-27T20:11:31.699Z,9.07
2022-10-27T20:14:02.531Z,10.98
2022-10-27T20:16:33.549Z,8.00
2022-10-27T20:19:09.707Z,10.40
2022-10-27T20:21:38.113Z,9.77
2022-10-27T20:24:21.829Z,11.63
2022-10-27T20:29:20.327Z,7.55
2022-10-27T20:31:50.401Z,12.32
2022-10-27T20:34:17.590Z,9.93
2022-10-27T20:36:44.262Z,9.50
2022-10-27T20:39:15.114Z,9.13
2022-10-27T20:41:41.761Z,9.20
2022-10-27T20:44:08.533Z,7.72
2022-10-27T20:46:35.087Z,8.48
2022-10-27T20:49:02.059Z,6.40
2022-10-27T20:51:30.763Z,10.02
2022-10-27T20:53:58.023Z,8.73
2022-10-27T20:56:37.115Z,12.63
2022-10-27T20:59:05.021Z,11.65
2022-10-27T21:04:03.150Z,12.35
2022-10-27T21:06:33.148Z,8.63
2022-10-27T21:09:02.660Z,11.45
2022-10-27T21:11:29.598Z,11.00
2022-10-27T21:13:58.529Z,8.27
2022-10-27T21:16:25.720Z,12.13
2022-10-27T21:18:54.127Z,13.93
2022-10-27T21:21:22.477Z,10.82
2022-10-27T21:23:49.834Z,8.57
2022-10-27T21:26:17.287Z,11.60
2022-10-27T21:28:44.054Z,12.10
2022-10-27T21:31:13.429Z,6.38
2022-10-27T21:33:41.866Z,9.90
2022-10-27T21:36:11.945Z,8.73
2022-10-27T21:38:41.398Z,11.68
2022-10-27T21:41:08.804Z,10.18
2022-10-27T21:43:36.714Z,16.40
2022-10-27T21:46:03.983Z,9.25
2022-10-27T21:48:30.687Z,9.52
2022-10-27T21:50:57.754Z,7.55
2022-10-27T21:53:25.478Z,14.00
2022-10-27T21:56:00.042Z,8.70
2022-10-27T21:58:28.218Z,9.38
2022-10-27T22:00:55.214Z,7.82
2022-10-27T22:03:21.831Z,10.90
2022-10-27T22:05:53.893Z,12.13
2022-10-27T22:08:22.075Z,15.20
2022-10-27T22:10:51.729Z,9.40
2022-10-27T22:13:19.976Z,11.70
2022-10-27T22:15:47.004Z,12.70
2022-10-27T22:18:13.542Z,13.63
2022-10-27T22:20:40.383Z,12.00
2022-10-27T22:23:06.896Z,11.10
2022-10-27T22:25:38.128Z,9.15
2022-10-27T22:28:04.647Z,9.75
2022-10-27T22:30:31.146Z,9.65
2022-10-27T22:32:59.020Z,13.45
2022-10-27T22:35:25.459Z,9.95
2022-10-27T22:37:52.942Z,7.70
2022-10-27T22:40:22.404Z,9.13
2022-10-27T22:42:49.055Z,15.73
2022-10-27T22:45:15.672Z,10.05
2022-10-27T22:47:42.217Z,15.23
2022-10-27T22:50:09.088Z,13.88
2022-10-27T22:52:38.180Z,9.57
2022-10-27T22:55:05.344Z,10.15
2022-10-27T22:57:31.872Z,7.13
2022-10-27T22:59:58.415Z,12.55
2022-10-27T23:02:25.090Z,9.10
2022-10-27T23:04:51.748Z,11.80
2022-10-27T23:07:18.873Z,11.20
2022-10-27T23:09:45.325Z,13.70
2022-10-27T23:12:11.841Z,12.77
2022-10-27T23:14:38.298Z,8.23
2022-10-27T23:17:04.978Z,10.40
2022-10-27T23:19:31.550Z,11.95
2022-10-27T23:21:58.207Z,12.00
2022-10-27T23:24:25.073Z,9.57
2022-10-27T23:26:51.928Z,11.80
2022-10-27T23:29:19.105Z,16.90
2022-10-27T23:31:45.670Z,11.50
2022-10-27T23:34:12.434Z,12.98
2022-10-27T23:36:39.383Z,11.93
2022-10-27T23:39:05.999Z,11.90
2022-10-27T23:41:33.888Z,13.30
2022-10-27T23:46:28.819Z,12.63
2022-10-27T23:48:55.848Z,17.15
2022-10-27T23:51:22.971Z,14.00
2022-10-27T23:53:50.236Z,13.10
2022-10-27T23:56:17.220Z,12.30
2022-10-27T23:58:44.390Z,10.95
